Startpagina
METAR-TAF:

METAR-TAF

Vliegvelden :

Aeropuerto de Gran Canaria

Gran Canaria, Spanje

breedte: 27-56N, lengte: 015-23W, hoogte: 23 m

Actueel weer

Dit bericht is 29 minuten geleden gemaakt, om 12:00 UTC
Wind 4 kt uit variabele richting
Temperatuur 23°C
Vochtigheid 53%
Druk 1015 hPa
Zicht 10 km of meer
Weinig wolken op 4000 ft

METAR: GCLP 161200Z VRB04KT 9999 FEW040 23/13 Q1015 NOSIG

Tijdstip: 12:29 (12:29 UTC)

Verwachting

Dit bericht is 4 uur en het 29 minuten geleden gemaakt, om 08:00 UTC
Verwachting geldig van 16 om 09 UTC tot 17 om 09 UTC
Wind 10 kt uit het noorden
Zicht 10 km of meer
Weinig wolken op 3000 ft
Tijdelijke
van 16 om 11 UTC tot 16 om 21 UTC
Wind 7 kt uit het zuidoosten
Wijzigt naar
van 16 om 21 UTC tot 16 om 24 UTC
Wind 5 kt uit het westen

TAF: GCLP 160800Z 1609/1709 36010KT 9999 FEW030 TX22/1614Z TN16/1706Z TEMPO 1611/1621 14007KT BECMG 1621/1624 27005KT

Waarnemingen en weersverwachtingen van meer dan 4000 vliegvelden (METAR en TAF).

De beschikbare stations zijn de gele en rode punten op de kaart.

Ga met uw muis naar het station om de naam te zien.

Klik dan om waarnemingen en weersverwachtingen te zien.

kaart wijzigen: klik op de groene knoppen met een zwart kruis om in te zoomen, op de groene knop met een streepje om uit te zoomen of op de groene pijlen voor aangrenzende kaarten.


METAR-TAF: